Time;durP1;ratioP1;P1;durP2;ratioP2;P2;SDS_P1;SDS_P2;PMS_P1;PMS_P2;Temp;Humidity;BMP_temperature;BMP_pressure;BME280_temperature;BME280_humidity;BME280_pressure;Samples;Min_cycle;Max_cycle;Signal;HPM_P1;HPM_P2
2022/08/12 00:44:08;;;;;;;;;;;;;;;21.64;45.11;101913.34;5033626;28;20320;-36
2022/08/12 00:46:59;;;;;;;;;;;;;;;21.62;45.01;101910.06;5033548;28;19913;-36
2022/08/12 00:49:25;;;;;;;;;;;;;;;21.59;45.31;101910.59;5033698;28;19913;-36
2022/08/12 00:52:10;;;;;;;;;;;;;;;21.54;45.68;101908.69;5033302;28;19913;-36
2022/08/12 00:54:43;;;;;;;;;;;;;;;21.54;45.99;101910.59;5033528;28;20000;-36
2022/08/12 00:57:19;;;;;;;;;;;;;;;21.53;45.07;101907.03;5033692;28;19940;-37
2022/08/12 00:59:47;;;;;;;;;;;;;;;21.51;45.15;101916.66;5033896;28;19913;-36
2022/08/12 01:02:32;;;;;;;;;;;;;;;21.49;44.65;101916.13;5033451;28;19982;-36
2022/08/12 01:13:18;;;;;;;;;;;;;;;21.30;45.44;101913.94;5034655;28;19919;-37
2022/08/12 01:15:44;;;;;;;;;;;;;;;21.25;45.24;101907.59;5037120;28;19913;-37
2022/08/12 01:18:10;;;;;;;;;;;;;;;21.20;45.45;101908.44;5036766;28;19913;-36
2022/08/12 01:20:48;;;;;;;;;;;;;;;21.17;45.39;101916.41;5037076;28;20249;-36
2022/08/12 01:23:26;;;;;;;;;;;;;;;21.13;45.71;101910.66;5037295;28;19913;-36
2022/08/12 01:25:52;;;;;;;;;;;;;;;21.10;45.92;101902.94;5036907;28;19913;-36
2022/08/12 01:28:19;;;;;;;;;;;;;;;21.07;46.07;101903.47;5036871;28;20318;-36
2022/08/12 01:30:47;;;;;;;;;;;;;;;21.02;45.63;101908.97;5036585;28;20312;-36
2022/08/12 01:33:15;;;;;;;;;;;;;;;20.97;46.39;101912.56;5036470;28;20384;-36
2022/08/12 01:35:43;;;;;;;;;;;;;;;20.93;46.23;101910.63;5036440;28;19966;-36
2022/08/12 01:38:10;;;;;;;;;;;;;;;20.90;46.70;101909.28;5036890;28;20351;-36
2022/08/12 01:40:37;;;;;;;;;;;;;;;20.87;46.35;101911.75;5036864;28;19913;-37
2022/08/12 01:43:07;;;;;;;;;;;;;;;20.84;46.64;101910.38;5036343;28;19992;-36
2022/08/12 01:45:34;;;;;;;;;;;;;;;20.80;46.79;101906.53;5036980;28;19913;-36
2022/08/12 01:48:03;;;;;;;;;;;;;;;20.78;47.06;101908.69;5036693;28;19913;-36
2022/08/12 01:50:35;;;;;;;;;;;;;;;20.74;47.03;101902.94;5036658;28;19936;-36
2022/08/12 01:53:11;;;;;;;;;;;;;;;20.71;47.53;101900.75;5036599;28;19936;-36
2022/08/12 01:55:38;;;;;;;;;;;;;;;20.71;47.12;101905.41;5036616;28;19975;-36
2022/08/12 01:58:23;;;;;;;;;;;;;;;20.69;47.33;101902.09;5036769;28;19920;-36
2022/08/12 02:01:02;;;;;;;;;;;;;;;20.67;47.48;101899.63;5036525;28;20230;-36
2022/08/12 02:03:28;;;;;;;;;;;;;;;20.65;47.49;101899.09;5036195;28;19940;-36
2022/08/12 02:11:52;;;;;;;;;;;;;;;20.56;48.23;101898.78;5036648;28;19963;-36
2022/08/12 02:14:30;;;;;;;;;;;;;;;20.54;48.42;101894.66;5036042;28;19917;-36
2022/08/12 02:16:55;;;;;;;;;;;;;;;20.50;48.19;101894.41;5036356;28;19917;-36
2022/08/12 02:19:27;;;;;;;;;;;;;;;20.48;47.95;101895.75;5035620;28;19913;-34
2022/08/12 02:21:52;;;;;;;;;;;;;;;20.45;48.17;101896.28;5036570;28;20007;-34
2022/08/12 02:24:19;;;;;;;;;;;;;;;20.43;47.90;101890.22;5034978;28;20380;-34
2022/08/12 02:26:46;;;;;;;;;;;;;;;20.39;48.47;101892.69;5035602;28;19913;-34
2022/08/12 02:29:11;;;;;;;;;;;;;;;20.36;48.66;101892.41;5035761;28;20384;-34
2022/08/12 02:31:37;;;;;;;;;;;;;;;20.33;48.02;101889.09;5035690;28;19952;-34
2022/08/12 02:34:02;;;;;;;;;;;;;;;20.29;48.98;101892.66;5035629;28;19917;-34
2022/08/12 02:36:29;;;;;;;;;;;;;;;20.24;48.67;101887.97;5035852;28;20353;-35
2022/08/12 02:38:56;;;;;;;;;;;;;;;20.23;48.22;101896.50;5035507;28;19920;-37
2022/08/12 02:41:24;;;;;;;;;;;;;;;20.21;48.87;101884.97;5035997;28;19957;-36
2022/08/12 02:43:51;;;;;;;;;;;;;;;20.17;49.28;101884.66;5035443;28;19913;-37
2022/08/12 02:46:26;;;;;;;;;;;;;;;20.14;49.16;101890.69;5035598;28;20023;-37
2022/08/12 02:48:56;;;;;;;;;;;;;;;20.09;50.00;101884.38;5035538;28;20031;-37
2022/08/12 02:51:23;;;;;;;;;;;;;;;20.06;49.19;101888.47;5036128;28;20026;-36
2022/08/12 02:53:49;;;;;;;;;;;;;;;20.04;49.18;101887.91;5035246;28;19920;-37
2022/08/12 02:56:15;;;;;;;;;;;;;;;20.01;52.99;101885.72;5035473;28;19912;-36
2022/08/12 02:58:41;;;;;;;;;;;;;;;19.98;50.44;101883.50;5035311;28;20217;-36
2022/08/12 03:01:10;;;;;;;;;;;;;;;19.94;50.33;101885.13;5035162;28;19913;-37
2022/08/12 03:03:36;;;;;;;;;;;;;;;19.93;50.79;101878.00;5035471;28;19913;-37
2022/08/12 03:06:21;;;;;;;;;;;;;;;19.91;52.72;101881.03;5035590;28;20264;-36
2022/08/12 03:08:48;;;;;;;;;;;;;;;19.83;53.77;101880.69;5035157;28;19913;-36
2022/08/12 03:11:25;;;;;;;;;;;;;;;19.80;51.63;101880.13;5035041;28;19920;-36
2022/08/12 03:13:54;;;;;;;;;;;;;;;19.81;51.97;101883.69;5034954;28;19917;-36
2022/08/12 03:16:19;;;;;;;;;;;;;;;19.79;51.41;101878.47;5034809;28;19913;-36
2022/08/12 03:18:45;;;;;;;;;;;;;;;19.78;52.14;101881.50;5034571;28;20000;-36
2022/08/12 03:21:12;;;;;;;;;;;;;;;19.76;52.03;101880.94;5034694;28;20341;-36
2022/08/12 03:23:39;;;;;;;;;;;;;;;19.75;51.52;101873.78;5035194;28;20272;-36
2022/08/12 03:26:05;;;;;;;;;;;;;;;19.74;51.35;101883.94;5034324;28;19964;-36
2022/08/12 03:28:50;;;;;;;;;;;;;;;19.72;51.40;101880.66;5034802;28;19913;-36
2022/08/12 03:31:23;;;;;;;;;;;;;;;19.70;51.16;101874.59;5034530;28;20015;-36
2022/08/12 03:33:49;;;;;;;;;;;;;;;19.69;51.18;101872.13;5035174;28;19913;-36
2022/08/12 03:36:19;;;;;;;;;;;;;;;19.66;52.19;101878.97;5033267;28;20257;-36
2022/08/12 03:38:49;;;;;;;;;;;;;;;19.60;52.70;101868.25;5034448;28;19913;-36
2022/08/12 03:41:35;;;;;;;;;;;;;;;19.56;53.54;101860.50;5035029;28;19925;-36
2022/08/12 04:00:36;;;;;;;;;;;;;;;19.31;54.53;101868.59;5034138;28;20253;-36
2022/08/12 04:03:01;;;;;;;;;;;;;;;19.25;55.62;101875.97;5034264;28;20350;-36
2022/08/12 04:05:27;;;;;;;;;;;;;;;19.24;54.69;101874.31;5034428;28;19917;-36
2022/08/12 04:07:53;;;;;;;;;;;;;;;19.22;53.98;101878.41;5033830;28;20353;-36
2022/08/12 04:10:19;;;;;;;;;;;;;;;19.20;56.71;101881.41;5033875;28;20379;-36
2022/08/12 04:13:27;;;;;;;;;;;;;;;19.19;55.12;101874.28;5033369;28;19913;-36
2022/08/12 04:15:45;;;;;;;;;;;;;;;19.21;55.26;101876.75;5032405;28;19912;-36
2022/08/12 04:18:12;;;;;;;;;;;;;;;19.21;54.71;101879.50;5033614;28;20264;-36
2022/08/12 04:20:41;;;;;;;;;;;;;;;19.19;54.20;101884.44;5033832;28;20398;-36
2022/08/12 04:23:07;;;;;;;;;;;;;;;19.16;53.96;101880.28;5034263;28;19917;-36
2022/08/12 04:25:34;;;;;;;;;;;;;;;19.11;54.55;101877.50;5065763;28;19921;-36
2022/08/12 04:28:00;;;;;;;;;;;;;;;19.13;54.67;101880.81;5034025;28;19913;-36
2022/08/12 04:30:25;;;;;;;;;;;;;;;19.12;54.55;101878.31;5033683;28;19913;-36
2022/08/12 04:32:51;;;;;;;;;;;;;;;19.10;55.13;101883.25;5033890;28;20418;-36
2022/08/12 04:35:16;;;;;;;;;;;;;;;19.09;55.09;101881.63;5034124;28;19919;-36
2022/08/12 04:37:44;;;;;;;;;;;;;;;19.07;54.39;101884.59;5033048;28;19928;-36
2022/08/12 04:40:12;;;;;;;;;;;;;;;19.07;56.48;101876.38;5033073;28;19913;-36
2022/08/12 04:42:37;;;;;;;;;;;;;;;19.06;55.79;101879.38;5033312;28;19979;-36
2022/08/12 04:45:02;;;;;;;;;;;;;;;19.03;55.76;101876.09;5033593;28;19917;-36
2022/08/12 04:47:28;;;;;;;;;;;;;;;19.04;55.78;101883.22;5033639;28;19922;-36
2022/08/12 04:49:53;;;;;;;;;;;;;;;19.02;56.44;101885.38;5033175;28;19920;-36
2022/08/12 04:52:18;;;;;;;;;;;;;;;19.00;56.34;101887.56;5033630;28;19913;-36
2022/08/12 04:54:45;;;;;;;;;;;;;;;18.99;55.88;101885.09;5033193;28;19935;-36
2022/08/12 04:57:10;;;;;;;;;;;;;;;18.97;56.62;101879.88;5033120;28;19913;-36
2022/08/12 04:59:35;;;;;;;;;;;;;;;18.99;57.95;101874.13;5033098;28;19943;-36
2022/08/12 05:02:01;;;;;;;;;;;;;;;19.03;59.62;101877.97;5031951;28;19917;-36
2022/08/12 05:04:26;;;;;;;;;;;;;;;19.03;58.97;101880.72;5031263;28;19924;-36
2022/08/12 05:06:52;;;;;;;;;;;;;;;19.03;58.32;101883.47;5033090;28;19916;-36
2022/08/12 05:09:17;;;;;;;;;;;;;;;19.08;57.61;101883.53;5033632;28;19920;-36
2022/08/12 05:11:45;;;;;;;;;;;;;;;19.13;59.94;101875.34;5032967;28;19951;-36
2022/08/12 05:14:11;;;;;;;;;;;;;;;19.15;58.71;101878.63;5032867;28;19913;-36
2022/08/12 05:16:36;;;;;;;;;;;;;;;19.22;58.10;101878.41;5033066;28;19913;-36
2022/08/12 05:19:02;;;;;;;;;;;;;;;19.25;59.08;101881.44;5033265;28;20019;-36
2022/08/12 05:21:28;;;;;;;;;;;;;;;19.24;61.75;101882.53;5033574;28;19967;-36
2022/08/12 05:23:53;;;;;;;;;;;;;;;19.29;61.49;101884.50;5032646;28;19948;-36
2022/08/12 05:26:19;;;;;;;;;;;;;;;19.36;59.01;101881.50;5033286;28;20016;-36
2022/08/12 05:28:45;;;;;;;;;;;;;;;19.40;59.48;101882.63;5032968;28;19920;-36
2022/08/12 05:31:11;;;;;;;;;;;;;;;19.47;61.47;101880.47;5033170;28;19913;-36
2022/08/12 05:33:38;;;;;;;;;;;;;;;19.52;59.51;101883.25;5033040;28;19967;-36
2022/08/12 05:36:06;;;;;;;;;;;;;;;19.60;60.18;101891.00;5033467;28;19920;-36
2022/08/12 05:41:19;;;;;;;;;;;;;;;19.69;60.23;101897.66;5032843;28;19967;-36
2022/08/12 05:44:07;;;;;;;;;;;;;;;19.74;59.73;101896.84;5032926;28;19913;-36
2022/08/12 05:46:33;;;;;;;;;;;;;;;19.85;59.97;101895.78;5050297;28;19920;-36
2022/08/12 05:48:59;;;;;;;;;;;;;;;19.91;60.87;101893.88;5050117;28;20340;-36
2022/08/12 05:51:26;;;;;;;;;;;;;;;19.95;60.25;101897.75;5050355;28;19917;-36
2022/08/12 05:53:52;;;;;;;;;;;;;;;20.00;60.08;101895.84;5050022;28;19913;-36
2022/08/12 05:56:19;;;;;;;;;;;;;;;20.08;60.37;101901.94;5049998;28;19959;-36
2022/08/12 05:58:45;;;;;;;;;;;;;;;20.13;59.60;101899.22;5050201;28;19913;-36
2022/08/12 06:01:10;;;;;;;;;;;;;;;20.14;60.19;101904.41;5053981;28;20443;-36
2022/08/12 06:03:35;;;;;;;;;;;;;;;20.22;59.28;101903.91;5053863;28;19913;-35
2022/08/12 06:06:02;;;;;;;;;;;;;;;20.29;59.83;101906.38;5054250;28;19993;-36
2022/08/12 06:08:27;;;;;;;;;;;;;;;20.35;59.74;101902.56;5053533;28;19920;-35
2022/08/12 06:10:52;;;;;;;;;;;;;;;20.40;59.74;101913.56;5053615;28;19913;-36
2022/08/12 06:13:18;;;;;;;;;;;;;;;20.48;59.34;101910.31;5054229;28;20043;-35
2022/08/12 06:15:43;;;;;;;;;;;;;;;20.50;59.10;101910.06;5054062;28;19936;-35
2022/08/12 06:18:09;;;;;;;;;;;;;;;20.51;59.13;101901.53;5053605;28;19913;-35
2022/08/12 06:20:35;;;;;;;;;;;;;;;20.61;59.20;101906.22;5053942;28;19917;-35
2022/08/12 06:23:01;;;;;;;;;;;;;;;20.73;58.90;101908.69;5048298;28;20380;-35
2022/08/12 06:25:29;;;;;;;;;;;;;;;20.84;58.45;101910.38;5036427;28;19913;-35
2022/08/12 06:27:55;;;;;;;;;;;;;;;20.93;57.77;101907.88;5035462;28;20345;-35
2022/08/12 06:30:21;;;;;;;;;;;;;;;21.04;57.86;101909.56;5035728;28;19913;-35
2022/08/12 06:32:47;;;;;;;;;;;;;;;21.09;57.78;101902.13;5035691;28;19913;-35
2022/08/12 06:35:12;;;;;;;;;;;;;;;21.17;57.65;101897.16;5035328;28;19999;-35
2022/08/12 06:37:42;;;;;;;;;;;;;;;21.24;57.54;101903.22;5035547;28;20122;-35
2022/08/12 06:40:08;;;;;;;;;;;;;;;21.28;57.05;101901.56;5036531;28;19952;-35
2022/08/12 06:42:53;;;;;;;;;;;;;;;21.34;56.66;101898.53;5035970;28;20046;-35
2022/08/12 06:45:18;;;;;;;;;;;;;;;21.39;56.97;101899.63;5035426;28;20003;-35
2022/08/12 06:47:44;;;;;;;;;;;;;;;21.45;56.40;101896.59;5035748;28;20004;-35
2022/08/12 06:50:12;;;;;;;;;;;;;;;21.53;56.79;101898.78;5035353;28;20388;-35
2022/08/12 06:52:37;;;;;;;;;;;;;;;21.60;56.26;101901.22;5035763;28;20015;-35
2022/08/12 06:55:03;;;;;;;;;;;;;;;21.65;56.40;101903.16;5035811;28;19948;-35
2022/08/12 06:57:28;;;;;;;;;;;;;;;21.71;56.38;101900.09;5035100;28;19912;-35
2022/08/12 06:59:54;;;;;;;;;;;;;;;21.78;56.25;101897.06;5035315;28;19913;-35
2022/08/12 07:02:21;;;;;;;;;;;;;;;21.89;55.72;101886.81;5035102;28;20008;-35
2022/08/12 07:04:46;;;;;;;;;;;;;;;21.99;55.92;101895.03;5035044;28;19917;-35
2022/08/12 07:07:12;;;;;;;;;;;;;;;22.08;54.98;101893.34;5034734;28;19913;-35
2022/08/12 07:09:38;;;;;;;;;;;;;;;22.10;53.83;101886.44;5035107;28;20047;-35
2022/08/12 07:12:03;;;;;;;;;;;;;;;22.18;54.56;101882.28;5034895;28;19913;-36
2022/08/12 07:14:29;;;;;;;;;;;;;;;22.27;54.46;101886.09;5035705;28;19928;-36
2022/08/12 07:17:00;;;;;;;;;;;;;;;22.31;53.50;101886.38;5034948;28;19913;-36
2022/08/12 07:19:26;;;;;;;;;;;;;;;22.35;53.84;101885.53;5034798;28;19913;-36
2022/08/12 07:21:51;;;;;;;;;;;;;;;22.45;53.63;101892.03;5035053;28;19916;-36
2022/08/12 07:24:16;;;;;;;;;;;;;;;22.53;53.63;101892.28;5034645;28;20349;-36
2022/08/12 07:26:43;;;;;;;;;;;;;;;22.60;53.08;101890.03;5034674;28;20344;-36
2022/08/12 07:29:08;;;;;;;;;;;;;;;22.70;53.19;101902.09;5035442;28;19963;-35
2022/08/12 07:31:35;;;;;;;;;;;;;;;22.79;52.93;101900.34;5035225;28;19920;-35
2022/08/12 07:34:00;;;;;;;;;;;;;;;22.87;52.44;101900.56;5034480;28;19913;-36
2022/08/12 07:36:26;;;;;;;;;;;;;;;22.99;52.38;101907.69;5034442;28;19917;-35
2022/08/12 07:38:51;;;;;;;;;;;;;;;23.06;51.23;101902.66;5034417;28;19917;-36
2022/08/12 07:41:18;;;;;;;;;;;;;;;23.12;51.71;101905.06;5034430;28;19956;-36
2022/08/12 07:43:45;;;;;;;;;;;;;;;23.22;51.16;101911.59;5034034;28;20365;-36
2022/08/12 07:46:11;;;;;;;;;;;;;;;23.33;50.49;101905.72;5034231;28;19913;-36
2022/08/12 07:48:38;;;;;;;;;;;;;;;23.41;49.87;101906.19;5034574;28;19913;-36
2022/08/12 07:51:04;;;;;;;;;;;;;;;23.50;49.09;101904.44;5034635;28;19913;-36
2022/08/12 07:53:29;;;;;;;;;;;;;;;23.61;49.86;101905.94;5033848;28;20388;-36
2022/08/12 07:55:55;;;;;;;;;;;;;;;23.74;49.43;101902.53;5034378;28;20245;-35
2022/08/12 07:58:22;;;;;;;;;;;;;;;23.86;48.55;101902.94;5034442;28;19913;-35
2022/08/12 08:00:48;;;;;;;;;;;;;;;24.01;47.47;101909.38;5034318;28;19924;-36
2022/08/12 08:03:15;;;;;;;;;;;;;;;24.09;47.56;101917.00;5033974;28;19917;-36
2022/08/12 08:05:47;;;;;;;;;;;;;;;24.17;47.30;101910.81;5034946;28;19924;-36
2022/08/12 08:08:18;;;;;;;;;;;;;;;24.29;46.84;101915.91;5034120;28;20253;-36
2022/08/12 08:10:45;;;;;;;;;;;;;;;24.39;47.06;101907.50;5034378;28;20024;-36
2022/08/12 08:13:11;;;;;;;;;;;;;;;24.51;46.73;101916.19;5033591;28;20372;-36
2022/08/12 08:15:38;;;;;;;;;;;;;;;24.60;45.53;101913.56;5033791;28;19939;-36
2022/08/12 08:18:04;;;;;;;;;;;;;;;24.70;45.38;101907.88;5033741;28;19920;-36
2022/08/12 08:20:32;;;;;;;;;;;;;;;24.78;44.45;101904.41;5034269;28;20091;-36
2022/08/12 08:22:58;;;;;;;;;;;;;;;24.89;44.13;101918.91;5033123;28;19912;-36
2022/08/12 08:25:30;;;;;;;;;;;;;;;24.97;45.06;101909.91;5033564;28;20288;-36
2022/08/12 08:27:55;;;;;;;;;;;;;;;25.04;44.42;101915.06;5033213;28;19995;-36
2022/08/12 08:30:22;;;;;;;;;;;;;;;25.10;44.47;101916.66;5034295;28;19952;-36
2022/08/12 08:32:47;;;;;;;;;;;;;;;25.20;45.05;101912.88;5033951;28;19920;-36
2022/08/12 08:35:13;;;;;;;;;;;;;;;25.33;43.80;101912.09;5033957;28;19913;-36
2022/08/12 08:37:38;;;;;;;;;;;;;;;25.39;43.88;101913.63;5033506;28;19920;-36
2022/08/12 08:42:35;;;;;;;;;;;;;;;25.37;43.18;101919.47;5033415;28;19913;-36
2022/08/12 08:42:50;;;;;;;;;;;;;;;25.49;42.53;101910.69;5033107;28;19960;-36
2022/08/12 08:45:15;;;;;;;;;;;;;;;25.65;41.88;101906.47;5033248;28;19959;-36
2022/08/12 08:47:44;;;;;;;;;;;;;;;25.72;42.90;101910.78;5033617;28;19913;-36
2022/08/12 08:50:09;;;;;;;;;;;;;;;25.81;41.97;101915.31;5033670;28;20344;-36
2022/08/12 08:52:36;;;;;;;;;;;;;;;25.97;42.24;101909.50;5032983;28;19952;-36
2022/08/12 08:55:01;;;;;;;;;;;;;;;26.06;42.06;101907.59;5033430;28;20251;-36
2022/08/12 08:57:26;;;;;;;;;;;;;;;26.15;40.21;101912.09;5033487;28;19920;-36
2022/08/12 08:59:51;;;;;;;;;;;;;;;26.21;39.48;101910.06;5033350;28;19913;-36
2022/08/12 09:02:17;;;;;;;;;;;;;;;26.29;39.55;101914.03;5033009;28;20302;-36
2022/08/12 09:04:44;;;;;;;;;;;;;;;26.36;39.13;101906.94;5033558;28;19974;-36
2022/08/12 09:07:11;;;;;;;;;;;;;;;26.50;39.52;101911.63;5033755;28;19971;-36
2022/08/12 09:09:36;;;;;;;;;;;;;;;26.62;40.10;101909.16;5033281;28;19913;-36
2022/08/12 09:14:47;;;;;;;;;;;;;;;26.87;38.79;101905.75;5033387;28;19920;-37
2022/08/12 09:17:13;;;;;;;;;;;;;;;27.02;38.76;101901.75;5033176;28;20288;-36
2022/08/12 09:19:38;;;;;;;;;;;;;;;27.11;38.82;101893.53;5033049;28;19913;-36
2022/08/12 09:22:06;;;;;;;;;;;;;;;27.18;37.01;101902.19;5033153;28;19924;-36
2022/08/12 09:24:31;;;;;;;;;;;;;;;27.25;36.11;101893.44;5032935;28;19928;-36
2022/08/12 09:26:56;;;;;;;;;;;;;;;27.35;36.68;101895.94;5032786;28;19913;-37
2022/08/12 09:29:21;;;;;;;;;;;;;;;27.40;36.63;101896.59;5032924;28;20381;-36
2022/08/12 09:31:49;;;;;;;;;;;;;;;27.42;37.42;101897.09;5033152;28;20007;-36
2022/08/12 09:34:14;;;;;;;;;;;;;;;27.54;36.61;101898.47;5034230;28;20004;-36
2022/08/12 09:36:40;;;;;;;;;;;;;;;27.57;36.92;101890.28;5037229;28;19941;-36
2022/08/12 09:39:06;;;;;;;;;;;;;;;27.73;36.58;101889.91;5036521;28;19975;-36
2022/08/12 09:41:41;;;;;;;;;;;;;;;27.91;37.48;101891.56;5037178;28;19923;-36
2022/08/12 09:46:50;;;;;;;;;;;;;;;28.16;37.08;101876.94;5036934;28;19920;-36
2022/08/12 09:49:16;;;;;;;;;;;;;;;28.36;37.54;101881.06;5036603;28;19913;-36
2022/08/12 09:51:42;;;;;;;;;;;;;;;28.56;35.46;101875.97;5036584;28;19976;-36
2022/08/12 09:54:10;;;;;;;;;;;;;;;28.56;34.92;101876.78;5036668;28;20327;-36
2022/08/12 09:56:36;;;;;;;;;;;;;;;28.67;34.73;101874.50;5037185;28;19920;-36
2022/08/12 09:59:01;;;;;;;;;;;;;;;28.78;33.07;101881.34;5036712;28;19916;-36
2022/08/12 10:01:27;;;;;;;;;;;;;;;28.75;33.42;101870.88;5036261;28;19913;-36
2022/08/12 10:03:52;;;;;;;;;;;;;;;28.84;33.13;101876.41;5036493;28;19967;-36
2022/08/12 10:06:17;;;;;;;;;;;;;;;28.98;33.03;101858.41;5036747;28;19913;-36
2022/08/12 10:08:43;;;;;;;;;;;;;;;29.11;32.76;101862.16;5036488;28;20311;-36
2022/08/12 10:13:54;;;;;;;;;;;;;;;29.34;30.78;101856.34;5036675;28;20261;-35
2022/08/12 10:16:23;;;;;;;;;;;;;;;29.54;31.23;101866.75;5036805;28;20342;-36
2022/08/12 10:18:48;;;;;;;;;;;;;;;29.68;32.19;101856.19;5035834;28;20267;-36
2022/08/12 10:21:13;;;;;;;;;;;;;;;29.73;31.86;101852.41;5036504;28;19913;-36
2022/08/12 10:23:39;;;;;;;;;;;;;;;29.74;29.57;101856.81;5035900;28;19913;-35
2022/08/12 10:31:32;;;;;;;;;;;;;;;29.70;30.36;101845.50;5035579;28;19920;-35
2022/08/12 10:33:57;;;;;;;;;;;;;;;29.79;31.23;101837.09;5035593;28;20364;-36
2022/08/12 10:36:23;;;;;;;;;;;;;;;29.90;30.52;101832.75;5036027;28;19967;-36
2022/08/12 10:38:49;;;;;;;;;;;;;;;30.06;31.01;101819.00;5035630;28;20334;-36
2022/08/12 10:44:01;;;;;;;;;;;;;;;30.08;30.08;101818.69;5035880;28;20003;-36
2022/08/12 10:46:26;;;;;;;;;;;;;;;29.95;30.21;101826.16;5035552;28;20348;-36
2022/08/12 10:48:52;;;;;;;;;;;;;;;30.12;30.68;101822.44;5035351;28;19981;-36
2022/08/12 10:51:18;;;;;;;;;;;;;;;30.09;28.83;101821.13;5036291;28;20257;-36
2022/08/12 10:53:46;;;;;;;;;;;;;;;30.10;28.42;101819.97;5036101;28;19913;-36
2022/08/12 10:56:12;;;;;;;;;;;;;;;30.22;28.72;101805.31;5035441;28;20010;-35
2022/08/12 10:58:38;;;;;;;;;;;;;;;30.29;27.92;101805.56;5035895;28;19913;-35
2022/08/12 11:01:05;;;;;;;;;;;;;;;30.40;28.41;101806.75;5034900;28;20042;-35
2022/08/12 11:03:36;;;;;;;;;;;;;;;30.48;28.06;101800.28;5035461;28;19913;-36
2022/08/12 11:06:01;;;;;;;;;;;;;;;30.47;27.77;101804.25;5035415;28;20146;-36
2022/08/12 11:08:27;;;;;;;;;;;;;;;30.48;27.70;101793.91;5035310;28;19913;-36
2022/08/12 11:10:52;;;;;;;;;;;;;;;30.66;27.34;101794.53;5035335;28;19913;-36
2022/08/12 11:13:19;;;;;;;;;;;;;;;30.60;27.46;101790.31;5035073;28;19913;-36
2022/08/12 11:15:44;;;;;;;;;;;;;;;30.66;27.71;101794.53;5035592;28;19920;-36
2022/08/12 11:18:10;;;;;;;;;;;;;;;30.58;26.76;101790.69;5034941;28;20302;-36
2022/08/12 11:20:35;;;;;;;;;;;;;;;30.70;27.59;101787.13;5035405;28;19913;-35
2022/08/12 11:23:03;;;;;;;;;;;;;;;30.73;27.03;101784.47;5034613;28;19913;-35
2022/08/12 11:25:28;;;;;;;;;;;;;;;30.87;27.82;101778.56;5035189;28;19913;-36
2022/08/12 11:27:53;;;;;;;;;;;;;;;30.84;26.98;101778.44;5034705;28;20258;-36
2022/08/12 11:30:19;;;;;;;;;;;;;;;30.77;27.80;101774.25;5034842;28;19919;-36
2022/08/12 11:32:44;;;;;;;;;;;;;;;30.91;27.31;101768.34;5035169;28;19913;-36
2022/08/12 11:35:09;;;;;;;;;;;;;;;30.98;27.02;101781.72;5034692;28;20020;-36
2022/08/12 11:37:37;;;;;;;;;;;;;;;31.14;27.33;101776.28;5034286;28;19913;-36
2022/08/12 11:40:02;;;;;;;;;;;;;;;31.18;26.98;101768.78;5035101;28;19959;-37
2022/08/12 11:42:28;;;;;;;;;;;;;;;31.13;26.58;101764.25;5034503;28;20364;-37
2022/08/12 11:44:53;;;;;;;;;;;;;;;31.21;26.49;101776.50;5035261;28;20304;-37
2022/08/12 11:47:19;;;;;;;;;;;;;;;31.22;27.33;101767.75;5034702;28;19919;-42
2022/08/12 11:49:44;;;;;;;;;;;;;;;31.32;26.17;101766.50;5034447;28;19935;-37
2022/08/12 11:52:09;;;;;;;;;;;;;;;31.14;25.78;101754.72;5034564;28;19965;-36
2022/08/12 11:54:35;;;;;;;;;;;;;;;31.22;26.11;101755.75;5034712;28;19936;-36
2022/08/12 11:57:00;;;;;;;;;;;;;;;31.35;26.69;101742.63;5033833;28;19953;-36
2022/08/12 11:59:26;;;;;;;;;;;;;;;31.32;26.23;101746.13;5032565;28;19959;-36
2022/08/12 12:01:51;;;;;;;;;;;;;;;31.39;26.36;101747.19;5034482;28;19920;-36
2022/08/12 12:04:17;;;;;;;;;;;;;;;31.39;25.78;101744.38;5034606;28;20366;-36
2022/08/12 12:06:42;;;;;;;;;;;;;;;31.45;25.59;101742.97;5034038;28;19970;-35
2022/08/12 12:09:07;;;;;;;;;;;;;;;31.43;25.96;101734.13;5034457;28;19998;-36
2022/08/12 12:11:33;;;;;;;;;;;;;;;31.22;26.28;101736.22;5034774;28;20007;-36
2022/08/12 12:13:58;;;;;;;;;;;;;;;31.44;26.33;101744.13;5033850;28;19913;-36
2022/08/12 12:16:23;;;;;;;;;;;;;;;31.61;26.84;101731.88;5034428;28;19917;-37
2022/08/12 12:18:48;;;;;;;;;;;;;;;31.57;25.76;101732.91;5033848;28;19917;-37
2022/08/12 12:21:14;;;;;;;;;;;;;;;31.69;26.59;101730.91;5033876;28;19967;-37
2022/08/12 12:23:39;;;;;;;;;;;;;;;31.89;26.50;101728.34;5033762;28;19913;-37
2022/08/12 12:26:05;;;;;;;;;;;;;;;31.98;25.99;101726.19;5034513;28;20300;-37
2022/08/12 12:28:30;;;;;;;;;;;;;;;31.96;24.98;101734.13;5033428;28;19914;-37
2022/08/12 12:30:55;;;;;;;;;;;;;;;31.91;25.57;101725.97;5034242;28;19913;-37
2022/08/12 12:33:21;;;;;;;;;;;;;;;31.79;25.44;101721.22;5033425;28;19916;-37
2022/08/12 12:35:46;;;;;;;;;;;;;;;31.95;24.38;101719.31;5033837;28;19920;-36
2022/08/12 12:38:12;;;;;;;;;;;;;;;32.09;25.85;101721.72;5033539;28;20015;-36
2022/08/12 12:40:38;;;;;;;;;;;;;;;32.00;24.87;101713.47;5033851;28;20357;-37
2022/08/12 12:43:04;;;;;;;;;;;;;;;32.10;25.10;101708.53;5033658;28;19960;-36
2022/08/12 12:45:31;;;;;;;;;;;;;;;32.07;24.25;101712.06;5033822;28;20324;-36
2022/08/12 12:47:56;;;;;;;;;;;;;;;32.11;24.75;101707.34;5033613;28;20043;-36
2022/08/12 12:50:22;;;;;;;;;;;;;;;32.04;24.56;101703.19;5033964;28;19982;-36
2022/08/12 12:52:47;;;;;;;;;;;;;;;32.06;25.20;101700.03;5033626;28;19913;-36
2022/08/12 12:55:14;;;;;;;;;;;;;;;31.98;24.11;101707.44;5033316;28;19913;-36
2022/08/12 12:57:39;;;;;;;;;;;;;;;31.98;24.60;101704.63;5033276;28;20014;-36
2022/08/12 13:00:15;;;;;;;;;;;;;;;32.01;25.13;101711.47;5033260;28;19972;-36
2022/08/12 13:02:42;;;;;;;;;;;;;;;31.89;25.39;101689.19;5033330;28;19920;-36
2022/08/12 13:05:08;;;;;;;;;;;;;;;32.10;24.91;101692.56;5034445;28;19998;-36
2022/08/12 13:07:40;;;;;;;;;;;;;;;32.36;25.30;101686.50;5033665;28;20303;-36
2022/08/12 13:10:05;;;;;;;;;;;;;;;32.40;25.10;101684.59;5039727;28;20277;-36
2022/08/12 13:12:31;;;;;;;;;;;;;;;32.45;25.49;101689.13;5039778;28;19924;-36
2022/08/12 13:14:56;;;;;;;;;;;;;;;32.48;24.67;101689.22;5039738;28;19928;-36
2022/08/12 13:17:21;;;;;;;;;;;;;;;32.55;24.65;101689.41;5040360;28;19913;-36
2022/08/12 13:19:46;;;;;;;;;;;;;;;31.98;24.67;101678.66;5040464;28;20265;-36
2022/08/12 13:22:16;;;;;;;;;;;;;;;32.02;25.53;101676.78;5040374;28;19997;-36
2022/08/12 13:24:42;;;;;;;;;;;;;;;32.21;24.63;101673.25;5039892;28;20327;-36
2022/08/12 13:27:07;;;;;;;;;;;;;;;32.35;25.10;101668.03;5039550;28;19917;-36
2022/08/12 13:29:32;;;;;;;;;;;;;;;32.42;24.98;101673.88;5039285;28;19913;-36
2022/08/12 13:32:01;;;;;;;;;;;;;;;32.51;25.08;101671.72;5039951;28;19913;-37
2022/08/12 13:34:26;;;;;;;;;;;;;;;32.59;23.50;101678.28;5039550;28;19920;-36
2022/08/12 13:36:51;;;;;;;;;;;;;;;32.51;23.65;101665.31;5039885;28;20269;-37
2022/08/12 13:39:20;;;;;;;;;;;;;;;32.65;24.93;101664.81;5039512;28;19959;-36
2022/08/12 13:41:45;;;;;;;;;;;;;;;32.80;24.20;101666.81;5039518;28;19921;-36
2022/08/12 13:44:11;;;;;;;;;;;;;;;33.01;24.11;101658.94;5039981;28;19917;-36
2022/08/12 13:46:39;;;;;;;;;;;;;;;33.06;22.90;101653.06;5039501;28;19919;-36
2022/08/12 13:49:06;;;;;;;;;;;;;;;33.19;23.65;101645.34;5039337;28;19913;-36
2022/08/12 13:51:34;;;;;;;;;;;;;;;33.23;23.66;101657.44;5039669;28;19971;-36
2022/08/12 13:53:59;;;;;;;;;;;;;;;33.15;23.09;101646.44;5039371;28;20008;-36
2022/08/12 13:56:25;;;;;;;;;;;;;;;33.23;23.47;101645.41;5039158;28;20012;-36
2022/08/12 13:58:51;;;;;;;;;;;;;;;33.17;23.22;101644.09;5039286;28;19952;-36
2022/08/12 14:01:19;;;;;;;;;;;;;;;33.15;22.15;101649.25;5039334;28;20253;-36
2022/08/12 14:03:45;;;;;;;;;;;;;;;32.87;21.64;101638.97;5039542;28;20258;-36
2022/08/12 14:06:12;;;;;;;;;;;;;;;33.00;23.09;101639.72;5039803;28;19920;-36
2022/08/12 14:08:38;;;;;;;;;;;;;;;33.06;22.23;101641.84;5039939;28;20352;-36